sensor_id;sensor_type;location;lat;lon;timestamp;P1;durP1;ratioP1;P2;durP2;ratioP2
21903;SDS011;11116;51.554;7.812;2022-08-19T00:00:50;17.02;;;11.40;;
21903;SDS011;11116;51.554;7.812;2022-08-19T00:03:17;15.68;;;10.95;;
21903;SDS011;11116;51.554;7.812;2022-08-19T00:05:44;14.13;;;11.55;;
21903;SDS011;11116;51.554;7.812;2022-08-19T00:08:10;16.27;;;11.23;;
21903;SDS011;11116;51.554;7.812;2022-08-19T00:10:37;13.73;;;10.13;;
21903;SDS011;11116;51.554;7.812;2022-08-19T00:13:05;13.43;;;10.10;;
21903;SDS011;11116;51.554;7.812;2022-08-19T00:15:32;11.80;;;9.95;;
21903;SDS011;11116;51.554;7.812;2022-08-19T00:17:59;14.07;;;10.85;;
21903;SDS011;11116;51.554;7.812;2022-08-19T00:20:26;13.40;;;9.80;;
21903;SDS011;11116;51.554;7.812;2022-08-19T00:22:53;13.50;;;11.00;;
21903;SDS011;11116;51.554;7.812;2022-08-19T00:25:20;13.57;;;10.00;;
21903;SDS011;11116;51.554;7.812;2022-08-19T00:27:47;13.98;;;11.50;;
21903;SDS011;11116;51.554;7.812;2022-08-19T00:30:16;17.80;;;11.32;;
21903;SDS011;11116;51.554;7.812;2022-08-19T00:32:43;10.95;;;9.45;;
21903;SDS011;11116;51.554;7.812;2022-08-19T00:35:09;11.57;;;9.75;;
21903;SDS011;11116;51.554;7.812;2022-08-19T00:37:37;17.17;;;10.25;;
21903;SDS011;11116;51.554;7.812;2022-08-19T00:40:08;11.35;;;9.98;;
21903;SDS011;11116;51.554;7.812;2022-08-19T00:42:36;13.65;;;10.77;;
21903;SDS011;11116;51.554;7.812;2022-08-19T00:45:04;11.13;;;9.60;;
21903;SDS011;11116;51.554;7.812;2022-08-19T00:47:37;13.88;;;9.88;;
21903;SDS011;11116;51.554;7.812;2022-08-19T00:50:05;12.02;;;9.30;;
21903;SDS011;11116;51.554;7.812;2022-08-19T00:52:35;11.15;;;8.70;;
21903;SDS011;11116;51.554;7.812;2022-08-19T00:55:08;10.48;;;9.32;;
21903;SDS011;11116;51.554;7.812;2022-08-19T00:57:38;12.20;;;10.18;;
21903;SDS011;11116;51.554;7.812;2022-08-19T01:00:09;11.85;;;8.73;;
21903;SDS011;11116;51.554;7.812;2022-08-19T01:02:40;12.23;;;9.32;;
21903;SDS011;11116;51.554;7.812;2022-08-19T01:05:08;11.60;;;8.82;;
21903;SDS011;11116;51.554;7.812;2022-08-19T01:07:37;13.20;;;8.60;;
21903;SDS011;11116;51.554;7.812;2022-08-19T01:10:07;11.20;;;8.88;;
21903;SDS011;11116;51.554;7.812;2022-08-19T01:12:36;10.23;;;8.82;;
21903;SDS011;11116;51.554;7.812;2022-08-19T01:15:03;12.18;;;8.98;;
21903;SDS011;11116;51.554;7.812;2022-08-19T01:17:32;12.02;;;8.82;;
21903;SDS011;11116;51.554;7.812;2022-08-19T01:20:01;15.70;;;9.55;;
21903;SDS011;11116;51.554;7.812;2022-08-19T01:22:31;11.73;;;9.57;;
21903;SDS011;11116;51.554;7.812;2022-08-19T01:25:03;11.32;;;9.25;;
21903;SDS011;11116;51.554;7.812;2022-08-19T01:27:36;14.27;;;9.27;;
21903;SDS011;11116;51.554;7.812;2022-08-19T01:30:04;10.93;;;9.82;;
21903;SDS011;11116;51.554;7.812;2022-08-19T01:32:32;11.77;;;9.70;;
21903;SDS011;11116;51.554;7.812;2022-08-19T01:35:00;11.48;;;9.15;;
21903;SDS011;11116;51.554;7.812;2022-08-19T01:37:27;11.07;;;9.55;;
21903;SDS011;11116;51.554;7.812;2022-08-19T01:39:56;10.70;;;9.55;;
21903;SDS011;11116;51.554;7.812;2022-08-19T01:42:23;10.90;;;9.35;;
21903;SDS011;11116;51.554;7.812;2022-08-19T01:44:50;10.75;;;9.48;;
21903;SDS011;11116;51.554;7.812;2022-08-19T01:47:17;10.10;;;8.70;;
21903;SDS011;11116;51.554;7.812;2022-08-19T01:49:44;11.43;;;9.80;;
21903;SDS011;11116;51.554;7.812;2022-08-19T01:52:11;12.45;;;10.82;;
21903;SDS011;11116;51.554;7.812;2022-08-19T01:54:38;10.77;;;9.30;;
21903;SDS011;11116;51.554;7.812;2022-08-19T01:57:07;11.57;;;9.48;;
21903;SDS011;11116;51.554;7.812;2022-08-19T01:59:37;11.88;;;9.32;;
21903;SDS011;11116;51.554;7.812;2022-08-19T02:02:06;10.38;;;9.27;;
21903;SDS011;11116;51.554;7.812;2022-08-19T02:04:33;11.75;;;10.48;;
21903;SDS011;11116;51.554;7.812;2022-08-19T02:07:00;11.13;;;10.02;;
21903;SDS011;11116;51.554;7.812;2022-08-19T02:09:27;11.60;;;9.40;;
21903;SDS011;11116;51.554;7.812;2022-08-19T02:11:53;13.65;;;9.70;;
21903;SDS011;11116;51.554;7.812;2022-08-19T02:14:22;12.23;;;10.55;;
21903;SDS011;11116;51.554;7.812;2022-08-19T02:16:48;14.63;;;10.63;;
21903;SDS011;11116;51.554;7.812;2022-08-19T02:19:15;13.48;;;10.45;;
21903;SDS011;11116;51.554;7.812;2022-08-19T02:21:42;12.75;;;10.65;;
21903;SDS011;11116;51.554;7.812;2022-08-19T02:24:09;12.30;;;11.02;;
21903;SDS011;11116;51.554;7.812;2022-08-19T02:26:37;13.15;;;11.48;;
21903;SDS011;11116;51.554;7.812;2022-08-19T02:29:04;13.13;;;11.40;;
21903;SDS011;11116;51.554;7.812;2022-08-19T02:31:32;15.23;;;11.07;;
21903;SDS011;11116;51.554;7.812;2022-08-19T02:33:59;13.18;;;10.93;;
21903;SDS011;11116;51.554;7.812;2022-08-19T02:36:26;12.43;;;10.90;;
21903;SDS011;11116;51.554;7.812;2022-08-19T02:38:53;12.57;;;11.27;;
21903;SDS011;11116;51.554;7.812;2022-08-19T02:41:20;12.68;;;11.02;;
21903;SDS011;11116;51.554;7.812;2022-08-19T02:43:50;15.95;;;11.55;;
21903;SDS011;11116;51.554;7.812;2022-08-19T02:46:18;15.75;;;11.63;;
21903;SDS011;11116;51.554;7.812;2022-08-19T02:48:48;11.00;;;9.82;;
21903;SDS011;11116;51.554;7.812;2022-08-19T02:51:17;13.88;;;12.00;;
21903;SDS011;11116;51.554;7.812;2022-08-19T02:53:44;19.17;;;14.57;;
21903;SDS011;11116;51.554;7.812;2022-08-19T02:56:11;19.08;;;14.85;;
21903;SDS011;11116;51.554;7.812;2022-08-19T02:58:38;20.35;;;16.08;;
21903;SDS011;11116;51.554;7.812;2022-08-19T03:01:05;21.40;;;15.50;;
21903;SDS011;11116;51.554;7.812;2022-08-19T03:03:32;17.90;;;14.35;;
21903;SDS011;11116;51.554;7.812;2022-08-19T03:06:05;21.08;;;15.13;;
21903;SDS011;11116;51.554;7.812;2022-08-19T03:08:33;19.48;;;14.50;;
21903;SDS011;11116;51.554;7.812;2022-08-19T03:11:00;20.17;;;15.70;;
21903;SDS011;11116;51.554;7.812;2022-08-19T03:13:27;18.00;;;14.23;;
21903;SDS011;11116;51.554;7.812;2022-08-19T03:15:54;16.58;;;14.18;;
21903;SDS011;11116;51.554;7.812;2022-08-19T03:18:21;17.17;;;14.20;;
21903;SDS011;11116;51.554;7.812;2022-08-19T03:20:48;19.23;;;14.70;;
21903;SDS011;11116;51.554;7.812;2022-08-19T03:23:21;16.92;;;13.52;;
21903;SDS011;11116;51.554;7.812;2022-08-19T03:25:49;21.17;;;15.20;;
21903;SDS011;11116;51.554;7.812;2022-08-19T03:28:17;23.60;;;17.67;;
21903;SDS011;11116;51.554;7.812;2022-08-19T03:30:54;21.10;;;16.17;;
21903;SDS011;11116;51.554;7.812;2022-08-19T03:33:22;23.50;;;16.80;;
21903;SDS011;11116;51.554;7.812;2022-08-19T03:35:58;22.77;;;16.17;;
21903;SDS011;11116;51.554;7.812;2022-08-19T03:38:28;16.65;;;14.75;;
21903;SDS011;11116;51.554;7.812;2022-08-19T03:40:55;16.67;;;14.00;;
21903;SDS011;11116;51.554;7.812;2022-08-19T03:43:21;18.85;;;14.23;;
21903;SDS011;11116;51.554;7.812;2022-08-19T03:45:48;21.23;;;16.85;;
21903;SDS011;11116;51.554;7.812;2022-08-19T03:48:16;19.83;;;16.27;;
21903;SDS011;11116;51.554;7.812;2022-08-19T03:50:43;21.13;;;17.15;;
21903;SDS011;11116;51.554;7.812;2022-08-19T03:53:09;18.50;;;15.93;;
21903;SDS011;11116;51.554;7.812;2022-08-19T03:55:40;18.40;;;15.73;;
21903;SDS011;11116;51.554;7.812;2022-08-19T03:58:07;19.40;;;15.95;;
21903;SDS011;11116;51.554;7.812;2022-08-19T04:00:36;22.35;;;15.82;;
21903;SDS011;11116;51.554;7.812;2022-08-19T04:03:02;18.83;;;15.80;;
21903;SDS011;11116;51.554;7.812;2022-08-19T04:05:29;19.65;;;15.55;;
21903;SDS011;11116;51.554;7.812;2022-08-19T04:07:56;25.50;;;17.95;;
21903;SDS011;11116;51.554;7.812;2022-08-19T04:10:23;27.17;;;17.13;;
21903;SDS011;11116;51.554;7.812;2022-08-19T04:12:52;24.73;;;17.65;;
21903;SDS011;11116;51.554;7.812;2022-08-19T04:15:19;26.52;;;18.15;;
21903;SDS011;11116;51.554;7.812;2022-08-19T04:17:46;26.10;;;19.63;;
21903;SDS011;11116;51.554;7.812;2022-08-19T04:20:12;24.33;;;18.15;;
21903;SDS011;11116;51.554;7.812;2022-08-19T04:22:39;24.08;;;18.88;;
21903;SDS011;11116;51.554;7.812;2022-08-19T04:25:06;24.83;;;17.55;;
21903;SDS011;11116;51.554;7.812;2022-08-19T04:27:33;24.92;;;18.60;;
21903;SDS011;11116;51.554;7.812;2022-08-19T04:30:01;23.38;;;18.38;;
21903;SDS011;11116;51.554;7.812;2022-08-19T04:32:29;24.70;;;17.52;;
21903;SDS011;11116;51.554;7.812;2022-08-19T04:34:57;23.65;;;18.15;;
21903;SDS011;11116;51.554;7.812;2022-08-19T04:37:23;22.40;;;17.50;;
21903;SDS011;11116;51.554;7.812;2022-08-19T04:39:51;23.25;;;17.50;;
21903;SDS011;11116;51.554;7.812;2022-08-19T04:42:36;25.15;;;18.05;;
21903;SDS011;11116;51.554;7.812;2022-08-19T04:45:08;25.60;;;19.70;;
21903;SDS011;11116;51.554;7.812;2022-08-19T04:47:38;25.50;;;20.27;;
21903;SDS011;11116;51.554;7.812;2022-08-19T04:50:06;25.77;;;20.38;;
21903;SDS011;11116;51.554;7.812;2022-08-19T04:52:35;28.27;;;20.00;;
21903;SDS011;11116;51.554;7.812;2022-08-19T04:55:02;27.75;;;20.70;;
21903;SDS011;11116;51.554;7.812;2022-08-19T04:57:31;31.38;;;22.05;;
21903;SDS011;11116;51.554;7.812;2022-08-19T04:59:57;31.13;;;23.50;;
21903;SDS011;11116;51.554;7.812;2022-08-19T05:02:26;35.33;;;22.95;;
21903;SDS011;11116;51.554;7.812;2022-08-19T05:04:55;33.35;;;22.15;;
21903;SDS011;11116;51.554;7.812;2022-08-19T05:07:24;32.28;;;22.45;;
21903;SDS011;11116;51.554;7.812;2022-08-19T05:09:51;32.90;;;23.60;;
21903;SDS011;11116;51.554;7.812;2022-08-19T05:12:18;30.58;;;23.05;;
21903;SDS011;11116;51.554;7.812;2022-08-19T05:14:45;29.55;;;22.58;;
21903;SDS011;11116;51.554;7.812;2022-08-19T05:17:13;30.77;;;21.50;;
21903;SDS011;11116;51.554;7.812;2022-08-19T05:19:41;30.05;;;22.70;;
21903;SDS011;11116;51.554;7.812;2022-08-19T05:22:25;31.35;;;22.73;;
21903;SDS011;11116;51.554;7.812;2022-08-19T05:25:01;26.20;;;20.85;;
21903;SDS011;11116;51.554;7.812;2022-08-19T05:27:30;27.38;;;19.20;;
21903;SDS011;11116;51.554;7.812;2022-08-19T05:29:57;29.23;;;20.13;;
21903;SDS011;11116;51.554;7.812;2022-08-19T05:32:24;30.17;;;20.10;;
21903;SDS011;11116;51.554;7.812;2022-08-19T05:34:52;28.27;;;21.40;;
21903;SDS011;11116;51.554;7.812;2022-08-19T05:37:20;28.20;;;22.35;;
21903;SDS011;11116;51.554;7.812;2022-08-19T05:39:47;36.58;;;24.98;;
21903;SDS011;11116;51.554;7.812;2022-08-19T05:42:14;35.38;;;25.58;;
21903;SDS011;11116;51.554;7.812;2022-08-19T05:44:42;34.92;;;24.60;;
21903;SDS011;11116;51.554;7.812;2022-08-19T05:47:10;31.95;;;23.65;;
21903;SDS011;11116;51.554;7.812;2022-08-19T05:49:40;35.67;;;24.40;;
21903;SDS011;11116;51.554;7.812;2022-08-19T05:52:10;36.67;;;25.58;;
21903;SDS011;11116;51.554;7.812;2022-08-19T05:54:40;34.55;;;24.77;;
21903;SDS011;11116;51.554;7.812;2022-08-19T05:57:08;33.58;;;23.95;;
21903;SDS011;11116;51.554;7.812;2022-08-19T05:59:35;32.20;;;24.40;;
21903;SDS011;11116;51.554;7.812;2022-08-19T06:02:02;33.85;;;24.08;;
21903;SDS011;11116;51.554;7.812;2022-08-19T06:04:31;35.53;;;25.38;;
21903;SDS011;11116;51.554;7.812;2022-08-19T06:06:58;30.65;;;24.10;;
21903;SDS011;11116;51.554;7.812;2022-08-19T06:09:28;42.25;;;27.00;;
21903;SDS011;11116;51.554;7.812;2022-08-19T06:11:55;33.30;;;23.83;;
21903;SDS011;11116;51.554;7.812;2022-08-19T06:14:25;34.58;;;23.83;;
21903;SDS011;11116;51.554;7.812;2022-08-19T06:16:53;35.05;;;25.42;;
21903;SDS011;11116;51.554;7.812;2022-08-19T06:19:20;32.13;;;24.15;;
21903;SDS011;11116;51.554;7.812;2022-08-19T06:21:50;36.47;;;26.48;;
21903;SDS011;11116;51.554;7.812;2022-08-19T06:24:18;35.97;;;25.80;;
21903;SDS011;11116;51.554;7.812;2022-08-19T06:26:50;33.95;;;24.17;;
21903;SDS011;11116;51.554;7.812;2022-08-19T06:29:18;31.48;;;23.80;;
21903;SDS011;11116;51.554;7.812;2022-08-19T06:31:47;31.67;;;22.08;;
21903;SDS011;11116;51.554;7.812;2022-08-19T06:34:15;28.98;;;22.45;;
21903;SDS011;11116;51.554;7.812;2022-08-19T06:36:44;35.90;;;26.70;;
21903;SDS011;11116;51.554;7.812;2022-08-19T06:39:13;39.50;;;25.80;;
21903;SDS011;11116;51.554;7.812;2022-08-19T06:41:42;35.30;;;26.20;;
21903;SDS011;11116;51.554;7.812;2022-08-19T06:44:17;38.47;;;27.58;;
21903;SDS011;11116;51.554;7.812;2022-08-19T06:46:45;38.72;;;25.52;;
21903;SDS011;11116;51.554;7.812;2022-08-19T06:49:12;30.65;;;22.70;;
21903;SDS011;11116;51.554;7.812;2022-08-19T06:51:40;27.45;;;22.42;;
21903;SDS011;11116;51.554;7.812;2022-08-19T06:54:08;30.98;;;22.88;;
21903;SDS011;11116;51.554;7.812;2022-08-19T06:56:36;28.20;;;21.58;;
21903;SDS011;11116;51.554;7.812;2022-08-19T06:59:05;28.17;;;21.10;;
21903;SDS011;11116;51.554;7.812;2022-08-19T07:01:39;28.25;;;21.08;;
21903;SDS011;11116;51.554;7.812;2022-08-19T07:04:12;27.95;;;21.00;;
21903;SDS011;11116;51.554;7.812;2022-08-19T07:06:40;21.63;;;18.60;;
21903;SDS011;11116;51.554;7.812;2022-08-19T07:09:09;26.13;;;20.33;;
21903;SDS011;11116;51.554;7.812;2022-08-19T07:11:36;26.50;;;19.33;;
21903;SDS011;11116;51.554;7.812;2022-08-19T07:14:03;30.77;;;23.13;;
21903;SDS011;11116;51.554;7.812;2022-08-19T07:16:31;81.30;;;32.60;;
21903;SDS011;11116;51.554;7.812;2022-08-19T07:19:00;31.23;;;22.13;;
21903;SDS011;11116;51.554;7.812;2022-08-19T07:21:27;35.30;;;23.08;;
21903;SDS011;11116;51.554;7.812;2022-08-19T07:23:56;28.73;;;20.30;;
21903;SDS011;11116;51.554;7.812;2022-08-19T07:26:26;32.20;;;22.20;;
21903;SDS011;11116;51.554;7.812;2022-08-19T07:28:55;25.83;;;21.13;;
21903;SDS011;11116;51.554;7.812;2022-08-19T07:31:24;27.45;;;20.13;;
21903;SDS011;11116;51.554;7.812;2022-08-19T07:33:53;30.90;;;20.17;;
21903;SDS011;11116;51.554;7.812;2022-08-19T07:36:23;30.35;;;20.17;;
21903;SDS011;11116;51.554;7.812;2022-08-19T07:38:58;25.60;;;17.92;;
21903;SDS011;11116;51.554;7.812;2022-08-19T07:41:26;23.95;;;17.05;;
21903;SDS011;11116;51.554;7.812;2022-08-19T07:43:56;25.25;;;18.60;;
21903;SDS011;11116;51.554;7.812;2022-08-19T07:46:23;22.27;;;18.08;;
21903;SDS011;11116;51.554;7.812;2022-08-19T07:48:51;21.48;;;16.27;;
21903;SDS011;11116;51.554;7.812;2022-08-19T07:51:19;23.27;;;17.52;;
21903;SDS011;11116;51.554;7.812;2022-08-19T07:53:49;24.98;;;17.67;;
21903;SDS011;11116;51.554;7.812;2022-08-19T07:56:16;22.02;;;15.85;;
21903;SDS011;11116;51.554;7.812;2022-08-19T07:58:44;24.98;;;14.15;;
21903;SDS011;11116;51.554;7.812;2022-08-19T08:01:14;18.55;;;13.45;;
21903;SDS011;11116;51.554;7.812;2022-08-19T08:03:42;19.25;;;11.93;;
21903;SDS011;11116;51.554;7.812;2022-08-19T08:06:27;12.88;;;10.48;;
21903;SDS011;11116;51.554;7.812;2022-08-19T08:09:13;18.80;;;13.15;;
21903;SDS011;11116;51.554;7.812;2022-08-19T08:11:48;15.27;;;11.18;;
21903;SDS011;11116;51.554;7.812;2022-08-19T08:14:17;17.10;;;12.50;;
21903;SDS011;11116;51.554;7.812;2022-08-19T08:16:45;18.27;;;13.30;;
21903;SDS011;11116;51.554;7.812;2022-08-19T08:19:12;22.88;;;13.93;;
21903;SDS011;11116;51.554;7.812;2022-08-19T08:21:41;19.00;;;12.70;;
21903;SDS011;11116;51.554;7.812;2022-08-19T08:24:08;23.63;;;14.38;;
21903;SDS011;11116;51.554;7.812;2022-08-19T08:26:37;24.08;;;15.15;;
21903;SDS011;11116;51.554;7.812;2022-08-19T08:29:04;18.85;;;12.90;;
21903;SDS011;11116;51.554;7.812;2022-08-19T08:31:33;16.67;;;12.35;;
21903;SDS011;11116;51.554;7.812;2022-08-19T08:34:00;12.43;;;9.02;;
21903;SDS011;11116;51.554;7.812;2022-08-19T08:36:27;14.75;;;12.45;;
21903;SDS011;11116;51.554;7.812;2022-08-19T08:38:53;15.90;;;13.20;;
21903;SDS011;11116;51.554;7.812;2022-08-19T08:41:22;10.93;;;9.38;;
21903;SDS011;11116;51.554;7.812;2022-08-19T08:43:59;12.93;;;9.55;;
21903;SDS011;11116;51.554;7.812;2022-08-19T08:46:29;11.52;;;9.32;;
21903;SDS011;11116;51.554;7.812;2022-08-19T08:49:06;11.85;;;8.93;;
21903;SDS011;11116;51.554;7.812;2022-08-19T08:51:44;11.48;;;8.65;;
21903;SDS011;11116;51.554;7.812;2022-08-19T08:54:19;11.20;;;8.35;;
21903;SDS011;11116;51.554;7.812;2022-08-19T08:56:47;14.63;;;9.40;;
21903;SDS011;11116;51.554;7.812;2022-08-19T08:59:20;8.70;;;7.75;;
21903;SDS011;11116;51.554;7.812;2022-08-19T09:01:51;11.75;;;10.10;;
21903;SDS011;11116;51.554;7.812;2022-08-19T09:04:18;17.52;;;11.02;;
21903;SDS011;11116;51.554;7.812;2022-08-19T09:06:48;19.15;;;10.25;;
21903;SDS011;11116;51.554;7.812;2022-08-19T09:09:23;15.65;;;11.75;;
21903;SDS011;11116;51.554;7.812;2022-08-19T09:12:00;13.85;;;9.25;;
21903;SDS011;11116;51.554;7.812;2022-08-19T09:14:37;14.13;;;9.50;;
21903;SDS011;11116;51.554;7.812;2022-08-19T09:17:10;12.52;;;8.23;;
21903;SDS011;11116;51.554;7.812;2022-08-19T09:19:46;13.00;;;10.07;;
21903;SDS011;11116;51.554;7.812;2022-08-19T09:22:16;13.60;;;8.88;;
21903;SDS011;11116;51.554;7.812;2022-08-19T09:24:46;11.55;;;9.38;;
21903;SDS011;11116;51.554;7.812;2022-08-19T09:27:14;12.25;;;8.98;;
21903;SDS011;11116;51.554;7.812;2022-08-19T09:29:42;13.32;;;9.18;;
21903;SDS011;11116;51.554;7.812;2022-08-19T09:32:09;12.43;;;8.30;;
21903;SDS011;11116;51.554;7.812;2022-08-19T09:34:35;12.35;;;9.18;;
21903;SDS011;11116;51.554;7.812;2022-08-19T09:37:02;10.43;;;8.05;;
21903;SDS011;11116;51.554;7.812;2022-08-19T09:39:30;10.52;;;8.43;;
21903;SDS011;11116;51.554;7.812;2022-08-19T09:41:57;11.20;;;9.48;;
21903;SDS011;11116;51.554;7.812;2022-08-19T09:44:23;10.60;;;8.70;;
21903;SDS011;11116;51.554;7.812;2022-08-19T09:46:51;9.60;;;8.60;;
21903;SDS011;11116;51.554;7.812;2022-08-19T09:49:19;10.25;;;9.05;;
21903;SDS011;11116;51.554;7.812;2022-08-19T09:51:49;11.52;;;8.93;;
21903;SDS011;11116;51.554;7.812;2022-08-19T09:54:16;10.30;;;8.25;;
21903;SDS011;11116;51.554;7.812;2022-08-19T09:56:43;8.55;;;7.47;;
21903;SDS011;11116;51.554;7.812;2022-08-19T09:59:10;10.10;;;8.63;;
21903;SDS011;11116;51.554;7.812;2022-08-19T10:01:37;9.48;;;6.95;;
21903;SDS011;11116;51.554;7.812;2022-08-19T10:04:06;13.70;;;7.85;;
21903;SDS011;11116;51.554;7.812;2022-08-19T10:06:34;15.23;;;7.32;;
21903;SDS011;11116;51.554;7.812;2022-08-19T10:09:04;13.10;;;7.47;;
21903;SDS011;11116;51.554;7.812;2022-08-19T10:11:32;10.45;;;9.35;;
21903;SDS011;11116;51.554;7.812;2022-08-19T10:14:00;12.25;;;10.98;;
21903;SDS011;11116;51.554;7.812;2022-08-19T10:16:27;18.92;;;12.70;;
21903;SDS011;11116;51.554;7.812;2022-08-19T10:18:54;13.40;;;12.05;;
21903;SDS011;11116;51.554;7.812;2022-08-19T10:21:24;16.45;;;12.02;;
21903;SDS011;11116;51.554;7.812;2022-08-19T10:23:53;14.32;;;10.82;;
21903;SDS011;11116;51.554;7.812;2022-08-19T10:26:23;14.70;;;11.25;;
21903;SDS011;11116;51.554;7.812;2022-08-19T10:28:52;26.17;;;11.63;;
21903;SDS011;11116;51.554;7.812;2022-08-19T10:31:20;16.17;;;10.43;;
21903;SDS011;11116;51.554;7.812;2022-08-19T10:33:48;28.58;;;9.52;;
21903;SDS011;11116;51.554;7.812;2022-08-19T10:36:24;14.00;;;10.20;;
21903;SDS011;11116;51.554;7.812;2022-08-19T10:38:53;12.02;;;8.60;;
21903;SDS011;11116;51.554;7.812;2022-08-19T10:41:24;9.40;;;8.50;;
21903;SDS011;11116;51.554;7.812;2022-08-19T10:43:53;8.18;;;7.38;;
21903;SDS011;11116;51.554;7.812;2022-08-19T10:46:23;8.00;;;7.20;;
21903;SDS011;11116;51.554;7.812;2022-08-19T10:48:52;9.40;;;8.38;;
21903;SDS011;11116;51.554;7.812;2022-08-19T10:51:19;14.43;;;8.32;;
21903;SDS011;11116;51.554;7.812;2022-08-19T10:54:05;10.00;;;7.95;;
21903;SDS011;11116;51.554;7.812;2022-08-19T10:56:32;10.57;;;9.13;;
21903;SDS011;11116;51.554;7.812;2022-08-19T10:59:17;8.95;;;8.05;;
21903;SDS011;11116;51.554;7.812;2022-08-19T11:01:46;8.77;;;7.93;;
21903;SDS011;11116;51.554;7.812;2022-08-19T11:04:13;11.60;;;8.13;;
21903;SDS011;11116;51.554;7.812;2022-08-19T11:06:42;10.10;;;7.38;;
21903;SDS011;11116;51.554;7.812;2022-08-19T11:09:14;6.60;;;5.85;;
21903;SDS011;11116;51.554;7.812;2022-08-19T11:11:42;9.70;;;8.80;;
21903;SDS011;11116;51.554;7.812;2022-08-19T11:14:10;8.68;;;7.70;;
21903;SDS011;11116;51.554;7.812;2022-08-19T11:16:38;7.60;;;6.80;;
21903;SDS011;11116;51.554;7.812;2022-08-19T11:19:05;6.38;;;5.80;;
21903;SDS011;11116;51.554;7.812;2022-08-19T11:21:34;8.38;;;5.78;;
21903;SDS011;11116;51.554;7.812;2022-08-19T11:24:05;7.25;;;6.63;;
21903;SDS011;11116;51.554;7.812;2022-08-19T11:26:35;10.05;;;7.60;;
21903;SDS011;11116;51.554;7.812;2022-08-19T11:29:03;8.43;;;7.18;;
21903;SDS011;11116;51.554;7.812;2022-08-19T11:31:32;8.63;;;7.68;;
21903;SDS011;11116;51.554;7.812;2022-08-19T11:34:02;10.88;;;7.20;;
21903;SDS011;11116;51.554;7.812;2022-08-19T11:36:31;6.75;;;6.07;;
21903;SDS011;11116;51.554;7.812;2022-08-19T11:38:58;7.38;;;6.65;;
21903;SDS011;11116;51.554;7.812;2022-08-19T11:41:26;7.35;;;6.75;;
21903;SDS011;11116;51.554;7.812;2022-08-19T11:43:54;9.07;;;8.13;;
21903;SDS011;11116;51.554;7.812;2022-08-19T11:46:22;9.23;;;8.25;;
21903;SDS011;11116;51.554;7.812;2022-08-19T11:48:51;8.40;;;7.60;;
21903;SDS011;11116;51.554;7.812;2022-08-19T11:51:20;9.95;;;6.97;;
21903;SDS011;11116;51.554;7.812;2022-08-19T11:53:49;8.10;;;7.32;;
21903;SDS011;11116;51.554;7.812;2022-08-19T11:56:17;7.55;;;6.78;;
21903;SDS011;11116;51.554;7.812;2022-08-19T11:58:45;10.00;;;8.00;;
21903;SDS011;11116;51.554;7.812;2022-08-19T12:01:14;8.80;;;7.85;;
21903;SDS011;11116;51.554;7.812;2022-08-19T12:03:43;7.78;;;6.85;;
21903;SDS011;11116;51.554;7.812;2022-08-19T12:06:14;6.18;;;5.65;;
21903;SDS011;11116;51.554;7.812;2022-08-19T12:08:42;5.55;;;5.05;;
21903;SDS011;11116;51.554;7.812;2022-08-19T12:11:11;5.18;;;4.68;;
21903;SDS011;11116;51.554;7.812;2022-08-19T12:13:40;6.18;;;5.13;;
21903;SDS011;11116;51.554;7.812;2022-08-19T12:16:11;8.45;;;5.18;;
21903;SDS011;11116;51.554;7.812;2022-08-19T12:18:42;5.82;;;5.32;;
21903;SDS011;11116;51.554;7.812;2022-08-19T12:21:11;7.43;;;5.47;;
21903;SDS011;11116;51.554;7.812;2022-08-19T12:23:39;9.82;;;6.72;;
21903;SDS011;11116;51.554;7.812;2022-08-19T12:26:06;8.15;;;7.35;;
21903;SDS011;11116;51.554;7.812;2022-08-19T12:28:36;7.32;;;6.63;;
21903;SDS011;11116;51.554;7.812;2022-08-19T12:31:03;7.65;;;6.90;;
21903;SDS011;11116;51.554;7.812;2022-08-19T12:33:32;9.30;;;6.13;;
21903;SDS011;11116;51.554;7.812;2022-08-19T12:36:00;10.13;;;7.63;;
21903;SDS011;11116;51.554;7.812;2022-08-19T12:38:29;9.60;;;7.47;;
21903;SDS011;11116;51.554;7.812;2022-08-19T12:40:57;7.63;;;6.85;;
21903;SDS011;11116;51.554;7.812;2022-08-19T12:43:24;8.07;;;7.07;;
21903;SDS011;11116;51.554;7.812;2022-08-19T12:45:51;11.20;;;6.30;;
21903;SDS011;11116;51.554;7.812;2022-08-19T12:48:18;7.43;;;6.72;;
21903;SDS011;11116;51.554;7.812;2022-08-19T12:50:47;7.47;;;6.78;;
21903;SDS011;11116;51.554;7.812;2022-08-19T12:53:14;7.70;;;6.47;;
21903;SDS011;11116;51.554;7.812;2022-08-19T12:55:42;9.93;;;6.03;;
21903;SDS011;11116;51.554;7.812;2022-08-19T12:58:09;7.72;;;6.90;;
21903;SDS011;11116;51.554;7.812;2022-08-19T13:00:38;6.88;;;5.78;;
21903;SDS011;11116;51.554;7.812;2022-08-19T13:03:05;7.13;;;6.43;;
21903;SDS011;11116;51.554;7.812;2022-08-19T13:05:32;6.90;;;5.88;;
21903;SDS011;11116;51.554;7.812;2022-08-19T13:08:02;8.98;;;6.50;;
21903;SDS011;11116;51.554;7.812;2022-08-19T13:10:29;10.73;;;5.68;;
21903;SDS011;11116;51.554;7.812;2022-08-19T13:13:00;6.78;;;5.93;;
21903;SDS011;11116;51.554;7.812;2022-08-19T13:15:28;7.15;;;6.25;;
21903;SDS011;11116;51.554;7.812;2022-08-19T13:17:56;6.25;;;5.43;;
21903;SDS011;11116;51.554;7.812;2022-08-19T13:20:24;5.43;;;4.93;;
21903;SDS011;11116;51.554;7.812;2022-08-19T13:22:51;5.88;;;5.32;;
21903;SDS011;11116;51.554;7.812;2022-08-19T13:25:20;6.75;;;5.57;;
21903;SDS011;11116;51.554;7.812;2022-08-19T13:27:47;6.35;;;5.72;;
21903;SDS011;11116;51.554;7.812;2022-08-19T13:30:17;7.05;;;5.75;;
21903;SDS011;11116;51.554;7.812;2022-08-19T13:33:02;6.85;;;6.15;;
21903;SDS011;11116;51.554;7.812;2022-08-19T13:35:41;6.43;;;5.82;;
21903;SDS011;11116;51.554;7.812;2022-08-19T13:38:10;6.72;;;6.15;;
21903;SDS011;11116;51.554;7.812;2022-08-19T13:40:39;6.57;;;5.97;;
21903;SDS011;11116;51.554;7.812;2022-08-19T13:43:07;6.43;;;5.82;;
21903;SDS011;11116;51.554;7.812;2022-08-19T13:45:35;9.32;;;5.57;;
21903;SDS011;11116;51.554;7.812;2022-08-19T13:48:03;7.70;;;5.65;;
21903;SDS011;11116;51.554;7.812;2022-08-19T13:50:34;6.60;;;6.10;;
21903;SDS011;11116;51.554;7.812;2022-08-19T13:53:05;6.13;;;5.63;;
21903;SDS011;11116;51.554;7.812;2022-08-19T13:55:32;6.22;;;5.72;;
21903;SDS011;11116;51.554;7.812;2022-08-19T13:58:00;10.80;;;6.03;;
21903;SDS011;11116;51.554;7.812;2022-08-19T14:00:29;6.82;;;6.10;;
21903;SDS011;11116;51.554;7.812;2022-08-19T14:02:58;8.18;;;6.88;;
21903;SDS011;11116;51.554;7.812;2022-08-19T14:05:26;9.25;;;7.20;;
21903;SDS011;11116;51.554;7.812;2022-08-19T14:07:54;8.77;;;7.80;;
21903;SDS011;11116;51.554;7.812;2022-08-19T14:10:21;7.90;;;7.20;;
21903;SDS011;11116;51.554;7.812;2022-08-19T14:12:49;7.50;;;6.90;;
21903;SDS011;11116;51.554;7.812;2022-08-19T14:15:21;9.18;;;8.27;;
21903;SDS011;11116;51.554;7.812;2022-08-19T14:17:49;9.55;;;8.60;;
21903;SDS011;11116;51.554;7.812;2022-08-19T14:20:16;8.20;;;7.40;;
21903;SDS011;11116;51.554;7.812;2022-08-19T14:22:43;10.40;;;8.90;;
21903;SDS011;11116;51.554;7.812;2022-08-19T14:25:13;9.65;;;8.55;;
21903;SDS011;11116;51.554;7.812;2022-08-19T14:27:41;12.70;;;8.32;;
21903;SDS011;11116;51.554;7.812;2022-08-19T14:30:10;8.93;;;8.00;;
21903;SDS011;11116;51.554;7.812;2022-08-19T14:32:40;7.13;;;6.53;;
21903;SDS011;11116;51.554;7.812;2022-08-19T14:35:09;7.32;;;6.63;;
21903;SDS011;11116;51.554;7.812;2022-08-19T14:37:38;8.55;;;6.50;;
21903;SDS011;11116;51.554;7.812;2022-08-19T14:40:05;5.95;;;5.45;;